createdAt,value
2018-05-31T00:01:48.064Z,1013.3
2018-05-31T00:06:48.092Z,1013.4
2018-05-31T00:11:48.076Z,1013.4
2018-05-31T00:16:48.680Z,1013.3
2018-05-31T00:21:48.817Z,1013.3
2018-05-31T00:26:52.128Z,1013.3
2018-05-31T00:31:49.822Z,1013.3
2018-05-31T00:37:02.331Z,1013.3
2018-05-31T00:42:02.269Z,1013.2
2018-05-31T00:47:03.216Z,1013.3
2018-05-31T00:52:03.244Z,1013.3
2018-05-31T00:57:02.373Z,1013.2
2018-05-31T01:02:02.196Z,1013.4
2018-05-31T01:07:02.068Z,1013.3
2018-05-31T01:12:03.230Z,1013.4
2018-05-31T01:17:02.709Z,1013.4
2018-05-31T01:22:15.342Z,1013.3
2018-05-31T01:27:15.372Z,1013.4
2018-05-31T01:32:15.039Z,1013.4
2018-05-31T01:37:15.183Z,1013.4
2018-05-31T01:42:15.382Z,1013.4
2018-05-31T01:47:15.095Z,1013.4
2018-05-31T01:52:15.348Z,1013.6
2018-05-31T01:57:17.721Z,1013.6
2018-05-31T02:02:18.788Z,1013.7
2018-05-31T02:07:30.296Z,1013.7
2018-05-31T02:12:31.242Z,1013.6
2018-05-31T02:17:30.353Z,1013.6
2018-05-31T02:22:30.899Z,1013.6
2018-05-31T02:27:30.009Z,1013.6
2018-05-31T02:32:30.042Z,1013.5
2018-05-31T02:37:29.942Z,1013.6
2018-05-31T02:42:30.784Z,1013.7
2018-05-31T02:47:30.559Z,1013.7
2018-05-31T02:52:43.325Z,1013.7
2018-05-31T02:57:43.033Z,1013.8
2018-05-31T03:02:44.295Z,1013.9
2018-05-31T03:07:44.362Z,1014
2018-05-31T03:12:44.432Z,1014.1
2018-05-31T03:17:44.367Z,1014
2018-05-31T03:22:44.429Z,1014.1
2018-05-31T03:27:45.059Z,1014.3
2018-05-31T03:32:44.478Z,1014.2
2018-05-31T03:37:56.991Z,1014.3
2018-05-31T03:42:56.934Z,1014.3
2018-05-31T03:47:57.907Z,1014.2
2018-05-31T03:52:56.892Z,1014.3
2018-05-31T03:57:56.932Z,1014.3
2018-05-31T04:02:56.798Z,1014.3
2018-05-31T04:07:56.738Z,1014.3
2018-05-31T04:12:59.654Z,1014.2
2018-05-31T04:17:59.277Z,1014.1
2018-05-31T04:23:09.794Z,1014.1
2018-05-31T04:28:09.748Z,1014.2
2018-05-31T04:33:09.652Z,1014.1
2018-05-31T04:38:09.532Z,1014.1
2018-05-31T04:43:09.529Z,1014.1
2018-05-31T04:48:09.520Z,1014.1
2018-05-31T04:53:09.971Z,1014.2
2018-05-31T04:58:12.194Z,1014.1
2018-05-31T05:03:12.048Z,1014.2
2018-05-31T05:08:24.885Z,1014.2
2018-05-31T05:13:24.887Z,1014.1
2018-05-31T05:18:24.709Z,1014
2018-05-31T05:23:24.765Z,1014.2
2018-05-31T05:28:24.793Z,1014.2
2018-05-31T05:33:24.604Z,1014.1
2018-05-31T05:38:24.742Z,1014.1
2018-05-31T05:43:27.390Z,1014.1
2018-05-31T05:48:26.902Z,1014.2
2018-05-31T05:53:39.500Z,1013.9
2018-05-31T05:58:39.237Z,1014
2018-05-31T06:03:39.235Z,1013.8
2018-05-31T06:08:40.536Z,1013.7
2018-05-31T06:13:39.237Z,1013.8
2018-05-31T06:18:39.386Z,1013.8
2018-05-31T06:23:39.252Z,1013.7
2018-05-31T06:28:39.286Z,1013.8
2018-05-31T06:33:39.570Z,1013.7
2018-05-31T06:38:50.993Z,1013.6
2018-05-31T06:43:50.718Z,1013.6
2018-05-31T06:48:52.172Z,1013.4
2018-05-31T06:53:50.739Z,1013.5
2018-05-31T06:58:50.701Z,1013.4
2018-05-31T07:03:51.089Z,1013.4
2018-05-31T07:08:50.889Z,1013.4
2018-05-31T07:13:55.950Z,1013.3
2018-05-31T07:18:55.663Z,1013.3
2018-05-31T07:24:07.876Z,1013.2
2018-05-31T07:29:07.620Z,1013.2
2018-05-31T07:34:07.754Z,1013.1
2018-05-31T07:39:07.736Z,1013.2
2018-05-31T07:44:07.719Z,1013.2
2018-05-31T07:49:07.757Z,1013.2
2018-05-31T07:54:09.061Z,1013.3
2018-05-31T07:59:08.205Z,1013.4
2018-05-31T08:04:08.151Z,1013.3
2018-05-31T08:09:23.128Z,1013.4
2018-05-31T08:14:22.913Z,1013.2
2018-05-31T08:19:22.723Z,1013.2
2018-05-31T08:24:22.798Z,1013.2
2018-05-31T08:29:22.763Z,1013.2
2018-05-31T08:34:22.734Z,1013.2
2018-05-31T08:39:22.887Z,1013
2018-05-31T08:44:26.060Z,1013.1
2018-05-31T08:49:25.748Z,1013
2018-05-31T08:54:36.138Z,1013.1
2018-05-31T08:59:35.540Z,1013.1
2018-05-31T09:04:35.593Z,1012.9
2018-05-31T09:09:35.542Z,1012.8
2018-05-31T09:14:38.584Z,1012.8
2018-05-31T09:19:35.572Z,1012.7
2018-05-31T09:24:36.769Z,1012.7
2018-05-31T09:29:40.742Z,1012.8
2018-05-31T09:34:39.997Z,1012.6
2018-05-31T09:39:52.480Z,1012.5
2018-05-31T09:44:52.198Z,1012.6
2018-05-31T09:49:52.381Z,1012.5
2018-05-31T09:54:52.307Z,1012.6
2018-05-31T09:59:52.346Z,1012.3
2018-05-31T10:04:52.484Z,1012.3
2018-05-31T10:09:52.384Z,1012.2
2018-05-31T10:14:54.546Z,1012.1
2018-05-31T10:19:54.194Z,1012.1
2018-05-31T10:25:11.946Z,1012.2
2018-05-31T10:30:12.998Z,1012
2018-05-31T10:35:11.598Z,1011.8
2018-05-31T10:40:11.608Z,1012
2018-05-31T10:45:11.792Z,1012
2018-05-31T10:50:11.627Z,1012
2018-05-31T10:55:11.746Z,1011.9
2018-05-31T11:00:15.598Z,1011.8
2018-05-31T11:05:15.420Z,1011.7
2018-05-31T11:10:26.117Z,1011.6
2018-05-31T11:15:26.041Z,1011.8
2018-05-31T11:20:25.823Z,1011.6
2018-05-31T11:25:25.836Z,1011.4
2018-05-31T11:30:25.791Z,1011.4
2018-05-31T11:35:25.839Z,1011.2
2018-05-31T11:40:27.629Z,1011.2
2018-05-31T11:45:27.528Z,1011.2
2018-05-31T11:50:27.294Z,1011.2
2018-05-31T11:55:40.243Z,1011
2018-05-31T12:00:39.824Z,1010.8
2018-05-31T12:05:40.130Z,1010.8
2018-05-31T12:10:39.857Z,1010.8
2018-05-31T12:15:40.049Z,1010.7
2018-05-31T12:20:40.210Z,1010.7
2018-05-31T12:25:40.328Z,1010.8
2018-05-31T12:30:40.206Z,1010.8
2018-05-31T12:35:40.200Z,1010.8
2018-05-31T12:40:52.122Z,1010.9
2018-05-31T12:45:51.866Z,1011
2018-05-31T12:50:51.867Z,1010.9
2018-05-31T12:55:51.871Z,1010.9
2018-05-31T13:00:52.037Z,1010.7
2018-05-31T13:05:52.495Z,1010.9
2018-05-31T13:10:51.954Z,1010.9
2018-05-31T13:15:51.908Z,1010.9
2018-05-31T13:20:52.103Z,1010.9
2018-05-31T13:25:51.879Z,1010.9
2018-05-31T13:30:51.958Z,1010.9
2018-05-31T13:35:51.879Z,1011
2018-05-31T13:40:53.284Z,1011
2018-05-31T13:45:52.994Z,1011
2018-05-31T13:51:05.735Z,1011
2018-05-31T13:56:05.448Z,1011.1
2018-05-31T14:01:05.671Z,1011
2018-05-31T14:06:05.771Z,1011
2018-05-31T14:11:05.986Z,1011.1
2018-05-31T14:16:05.440Z,1011
2018-05-31T14:21:05.452Z,1011
2018-05-31T14:26:05.674Z,1011.1
2018-05-31T14:31:05.486Z,1011
2018-05-31T14:36:05.663Z,1011
2018-05-31T14:41:05.590Z,1011.1
2018-05-31T14:46:05.685Z,1011
2018-05-31T14:51:06.360Z,1011
2018-05-31T14:56:06.068Z,1010.9
2018-05-31T15:01:18.103Z,1011
2018-05-31T15:06:17.868Z,1011
2018-05-31T15:11:19.308Z,1011
2018-05-31T15:16:17.926Z,1010.9
2018-05-31T15:21:18.023Z,1010.9
2018-05-31T15:26:18.047Z,1010.9
2018-05-31T15:31:17.953Z,1010.8
2018-05-31T15:36:17.849Z,1010.6
2018-05-31T15:41:17.845Z,1010.6
2018-05-31T15:46:30.059Z,1010.7
2018-05-31T15:51:29.845Z,1010.7
2018-05-31T15:56:29.858Z,1010.6
2018-05-31T16:01:29.772Z,1010.7
2018-05-31T16:06:29.759Z,1010.8
2018-05-31T16:11:30.038Z,1011
2018-05-31T16:16:29.792Z,1010.9
2018-05-31T16:21:32.298Z,1010.9
2018-05-31T16:26:31.994Z,1011.1
2018-05-31T16:31:42.712Z,1011.1
2018-05-31T16:36:42.590Z,1011.1
2018-05-31T16:41:42.602Z,1011.1
2018-05-31T16:46:42.661Z,1011.1
2018-05-31T16:51:42.568Z,1011.1
2018-05-31T16:56:42.565Z,1011.1
2018-05-31T17:01:42.659Z,1011.1
2018-05-31T17:06:43.222Z,1011.1
2018-05-31T17:11:43.118Z,1011.1
2018-05-31T17:16:55.440Z,1011.2
2018-05-31T17:21:55.400Z,1011.3
2018-05-31T17:26:55.330Z,1011.3
2018-05-31T17:31:55.346Z,1011.3
2018-05-31T17:36:55.280Z,1011.3
2018-05-31T17:41:55.321Z,1011.3
2018-05-31T17:46:55.183Z,1011.3
2018-05-31T17:51:55.199Z,1011.3
2018-05-31T17:56:55.194Z,1011.4
2018-05-31T18:02:10.182Z,1011.3
2018-05-31T18:07:10.155Z,1011.4
2018-05-31T18:12:09.931Z,1011.4
2018-05-31T18:17:10.043Z,1011.4
2018-05-31T18:22:09.923Z,1011.3
2018-05-31T18:27:10.061Z,1011.5
2018-05-31T18:32:10.094Z,1011.6
2018-05-31T18:37:10.495Z,1011.7
2018-05-31T18:42:10.236Z,1011.8
2018-05-31T18:47:23.065Z,1011.7
2018-05-31T18:52:23.066Z,1011.6
2018-05-31T18:57:23.008Z,1011.5
2018-05-31T19:02:22.799Z,1011.6
2018-05-31T19:07:23.322Z,1011.7
2018-05-31T19:12:22.786Z,1011.6
2018-05-31T19:17:22.798Z,1011.7
2018-05-31T19:22:22.936Z,1011.6
2018-05-31T19:27:22.846Z,1011.7
2018-05-31T19:32:23.207Z,1012
2018-05-31T19:37:23.054Z,1012.2
2018-05-31T19:42:23.002Z,1012.4
2018-05-31T19:47:24.701Z,1012.5
2018-05-31T19:52:24.435Z,1012.6
2018-05-31T19:57:38.474Z,1012.6
2018-05-31T20:02:38.001Z,1012.7
2018-05-31T20:07:38.742Z,1012.7
2018-05-31T20:12:38.505Z,1012.7
2018-05-31T20:17:38.313Z,1012.7
2018-05-31T20:22:38.096Z,1012.8
2018-05-31T20:27:38.094Z,1012.8
2018-05-31T20:32:38.767Z,1012.8
2018-05-31T20:37:38.613Z,1013.1
2018-05-31T20:42:51.745Z,1013.1
2018-05-31T20:47:52.907Z,1013.1
2018-05-31T20:52:51.603Z,1013.1
2018-05-31T20:57:51.644Z,1013.1
2018-05-31T21:02:51.482Z,1013
2018-05-31T21:07:51.484Z,1013.1
2018-05-31T21:12:51.637Z,1013.2
2018-05-31T21:17:51.695Z,1013.1
2018-05-31T21:22:51.902Z,1013.2
2018-05-31T21:27:51.434Z,1013.1
2018-05-31T21:32:51.503Z,1013.2
2018-05-31T21:37:51.751Z,1013.2
2018-05-31T21:42:53.657Z,1013.2
2018-05-31T21:47:53.217Z,1013.2
2018-05-31T21:53:05.610Z,1013.2
2018-05-31T21:58:05.936Z,1013.2
2018-05-31T22:03:05.596Z,1013.2
2018-05-31T22:08:05.540Z,1013.3
2018-05-31T22:13:05.398Z,1013.3
2018-05-31T22:18:05.507Z,1013.3
2018-05-31T22:23:05.363Z,1013.2
2018-05-31T22:28:08.468Z,1013.4
2018-05-31T22:33:08.343Z,1013.4
2018-05-31T22:38:18.664Z,1013.2
2018-05-31T22:43:18.628Z,1013.3
2018-05-31T22:48:18.381Z,1013.3
2018-05-31T22:53:18.571Z,1013.4
2018-05-31T22:58:18.577Z,1013.4
2018-05-31T23:03:18.503Z,1013.5
2018-05-31T23:08:18.411Z,1013.5
2018-05-31T23:13:18.756Z,1013.4
2018-05-31T23:18:18.732Z,1013.4
2018-05-31T23:23:31.067Z,1013.6
2018-05-31T23:28:30.768Z,1013.6
2018-05-31T23:33:30.999Z,1013.6
2018-05-31T23:38:30.752Z,1013.6
2018-05-31T23:43:30.993Z,1013.6
2018-05-31T23:48:31.014Z,1013.8
2018-05-31T23:53:30.923Z,1013.8
2018-05-31T23:58:31.148Z,1013.8
